sensor_id;sensor_type;location;lat;lon;timestamp;P1;durP1;ratioP1;P2;durP2;ratioP2
15669;SDS011;18524;45.190;5.732;2024-01-30T00:00:19;26.57;;;21.00;;
15669;SDS011;18524;45.190;5.732;2024-01-30T00:05:09;27.40;;;19.67;;
15669;SDS011;18524;45.190;5.732;2024-01-30T00:10:00;26.10;;;19.73;;
15669;SDS011;18524;45.190;5.732;2024-01-30T00:14:50;29.03;;;21.93;;
15669;SDS011;18524;45.190;5.732;2024-01-30T00:19:41;29.03;;;21.47;;
15669;SDS011;18524;45.190;5.732;2024-01-30T00:24:31;27.87;;;20.97;;
15669;SDS011;18524;45.190;5.732;2024-01-30T00:29:22;28.70;;;20.77;;
15669;SDS011;18524;45.190;5.732;2024-01-30T00:34:12;29.87;;;21.03;;
15669;SDS011;18524;45.190;5.732;2024-01-30T00:39:03;29.07;;;20.80;;
15669;SDS011;18524;45.190;5.732;2024-01-30T00:43:57;28.93;;;20.60;;
15669;SDS011;18524;45.190;5.732;2024-01-30T00:48:47;29.83;;;21.43;;
15669;SDS011;18524;45.190;5.732;2024-01-30T00:53:37;27.67;;;20.83;;
15669;SDS011;18524;45.190;5.732;2024-01-30T00:58:28;31.20;;;22.13;;
15669;SDS011;18524;45.190;5.732;2024-01-30T01:03:18;29.57;;;21.33;;
15669;SDS011;18524;45.190;5.732;2024-01-30T01:08:08;29.93;;;21.53;;
15669;SDS011;18524;45.190;5.732;2024-01-30T01:12:59;31.50;;;21.87;;
15669;SDS011;18524;45.190;5.732;2024-01-30T01:17:49;28.90;;;21.30;;
15669;SDS011;18524;45.190;5.732;2024-01-30T01:22:39;28.43;;;21.67;;
15669;SDS011;18524;45.190;5.732;2024-01-30T01:27:30;28.33;;;22.20;;
15669;SDS011;18524;45.190;5.732;2024-01-30T01:32:22;29.77;;;21.17;;
15669;SDS011;18524;45.190;5.732;2024-01-30T01:37:12;29.67;;;22.20;;
15669;SDS011;18524;45.190;5.732;2024-01-30T01:42:02;33.10;;;23.17;;
15669;SDS011;18524;45.190;5.732;2024-01-30T01:46:54;29.50;;;21.53;;
15669;SDS011;18524;45.190;5.732;2024-01-30T01:51:45;27.97;;;21.27;;
15669;SDS011;18524;45.190;5.732;2024-01-30T01:56:37;29.00;;;21.03;;
15669;SDS011;18524;45.190;5.732;2024-01-30T02:01:28;29.57;;;20.67;;
15669;SDS011;18524;45.190;5.732;2024-01-30T02:06:19;27.57;;;19.97;;
15669;SDS011;18524;45.190;5.732;2024-01-30T02:11:10;29.07;;;20.20;;
15669;SDS011;18524;45.190;5.732;2024-01-30T02:16:01;26.90;;;19.93;;
15669;SDS011;18524;45.190;5.732;2024-01-30T02:20:52;28.80;;;20.47;;
15669;SDS011;18524;45.190;5.732;2024-01-30T02:25:43;30.63;;;21.27;;
15669;SDS011;18524;45.190;5.732;2024-01-30T02:30:34;27.60;;;20.13;;
15669;SDS011;18524;45.190;5.732;2024-01-30T02:35:25;27.83;;;20.30;;
15669;SDS011;18524;45.190;5.732;2024-01-30T02:40:15;27.70;;;20.40;;
15669;SDS011;18524;45.190;5.732;2024-01-30T02:45:05;31.30;;;21.03;;
15669;SDS011;18524;45.190;5.732;2024-01-30T02:49:56;27.03;;;20.00;;
15669;SDS011;18524;45.190;5.732;2024-01-30T02:54:46;30.23;;;21.70;;
15669;SDS011;18524;45.190;5.732;2024-01-30T02:59:37;27.10;;;20.47;;
15669;SDS011;18524;45.190;5.732;2024-01-30T03:04:27;30.50;;;22.03;;
15669;SDS011;18524;45.190;5.732;2024-01-30T03:09:20;31.17;;;21.27;;
15669;SDS011;18524;45.190;5.732;2024-01-30T03:14:10;28.23;;;21.00;;
15669;SDS011;18524;45.190;5.732;2024-01-30T03:19:01;26.40;;;19.33;;
15669;SDS011;18524;45.190;5.732;2024-01-30T03:23:52;24.33;;;18.77;;
15669;SDS011;18524;45.190;5.732;2024-01-30T03:28:43;25.83;;;18.77;;
15669;SDS011;18524;45.190;5.732;2024-01-30T03:33:33;26.73;;;19.77;;
15669;SDS011;18524;45.190;5.732;2024-01-30T03:38:24;27.43;;;19.27;;
15669;SDS011;18524;45.190;5.732;2024-01-30T03:43:14;24.40;;;19.40;;
15669;SDS011;18524;45.190;5.732;2024-01-30T03:48:05;25.87;;;18.83;;
15669;SDS011;18524;45.190;5.732;2024-01-30T03:52:56;26.63;;;18.63;;
15669;SDS011;18524;45.190;5.732;2024-01-30T03:57:46;26.50;;;19.57;;
15669;SDS011;18524;45.190;5.732;2024-01-30T04:02:36;29.13;;;19.63;;
15669;SDS011;18524;45.190;5.732;2024-01-30T04:07:27;27.23;;;19.73;;
15669;SDS011;18524;45.190;5.732;2024-01-30T04:12:17;26.70;;;19.07;;
15669;SDS011;18524;45.190;5.732;2024-01-30T04:17:07;27.63;;;19.07;;
15669;SDS011;18524;45.190;5.732;2024-01-30T04:21:58;25.10;;;19.03;;
15669;SDS011;18524;45.190;5.732;2024-01-30T04:26:48;27.50;;;20.23;;
15669;SDS011;18524;45.190;5.732;2024-01-30T04:31:38;30.53;;;19.93;;
15669;SDS011;18524;45.190;5.732;2024-01-30T04:36:29;26.90;;;19.70;;
15669;SDS011;18524;45.190;5.732;2024-01-30T04:41:19;27.47;;;19.73;;
15669;SDS011;18524;45.190;5.732;2024-01-30T04:46:09;27.83;;;19.73;;
15669;SDS011;18524;45.190;5.732;2024-01-30T04:51:00;27.47;;;20.43;;
15669;SDS011;18524;45.190;5.732;2024-01-30T04:55:53;26.87;;;18.73;;
15669;SDS011;18524;45.190;5.732;2024-01-30T05:00:43;26.50;;;18.90;;
15669;SDS011;18524;45.190;5.732;2024-01-30T05:05:33;26.70;;;18.60;;
15669;SDS011;18524;45.190;5.732;2024-01-30T05:10:24;26.10;;;19.33;;
15669;SDS011;18524;45.190;5.732;2024-01-30T05:15:14;25.17;;;18.20;;
15669;SDS011;18524;45.190;5.732;2024-01-30T05:20:05;27.13;;;19.70;;
15669;SDS011;18524;45.190;5.732;2024-01-30T05:24:56;26.60;;;19.90;;
15669;SDS011;18524;45.190;5.732;2024-01-30T05:29:46;26.17;;;18.47;;
15669;SDS011;18524;45.190;5.732;2024-01-30T05:34:36;25.03;;;18.50;;
15669;SDS011;18524;45.190;5.732;2024-01-30T05:39:27;24.77;;;18.53;;
15669;SDS011;18524;45.190;5.732;2024-01-30T05:44:17;24.63;;;18.60;;
15669;SDS011;18524;45.190;5.732;2024-01-30T05:49:08;25.93;;;18.00;;
15669;SDS011;18524;45.190;5.732;2024-01-30T05:53:58;24.43;;;17.43;;
15669;SDS011;18524;45.190;5.732;2024-01-30T05:58:49;26.97;;;18.63;;
15669;SDS011;18524;45.190;5.732;2024-01-30T06:03:40;23.60;;;17.80;;
15669;SDS011;18524;45.190;5.732;2024-01-30T06:08:30;25.87;;;18.90;;
15669;SDS011;18524;45.190;5.732;2024-01-30T06:13:21;24.87;;;18.27;;
15669;SDS011;18524;45.190;5.732;2024-01-30T06:18:11;23.67;;;17.97;;
15669;SDS011;18524;45.190;5.732;2024-01-30T06:23:01;26.17;;;19.87;;
15669;SDS011;18524;45.190;5.732;2024-01-30T06:27:52;23.57;;;18.20;;
15669;SDS011;18524;45.190;5.732;2024-01-30T06:32:42;25.63;;;18.97;;
15669;SDS011;18524;45.190;5.732;2024-01-30T06:37:32;25.97;;;19.20;;
15669;SDS011;18524;45.190;5.732;2024-01-30T06:42:23;25.87;;;17.87;;
15669;SDS011;18524;45.190;5.732;2024-01-30T06:47:13;26.23;;;18.67;;
15669;SDS011;18524;45.190;5.732;2024-01-30T06:52:06;26.07;;;18.67;;
15669;SDS011;18524;45.190;5.732;2024-01-30T06:56:57;25.03;;;18.77;;
15669;SDS011;18524;45.190;5.732;2024-01-30T07:01:47;25.43;;;18.63;;
15669;SDS011;18524;45.190;5.732;2024-01-30T07:06:38;23.07;;;16.60;;
15669;SDS011;18524;45.190;5.732;2024-01-30T07:11:28;25.43;;;17.30;;
15669;SDS011;18524;45.190;5.732;2024-01-30T07:16:19;22.80;;;16.80;;
15669;SDS011;18524;45.190;5.732;2024-01-30T07:21:09;22.90;;;16.00;;
15669;SDS011;18524;45.190;5.732;2024-01-30T07:26:00;22.30;;;15.83;;
15669;SDS011;18524;45.190;5.732;2024-01-30T07:30:51;25.50;;;16.50;;
15669;SDS011;18524;45.190;5.732;2024-01-30T07:35:41;23.47;;;16.83;;
15669;SDS011;18524;45.190;5.732;2024-01-30T07:40:32;27.37;;;17.90;;
15669;SDS011;18524;45.190;5.732;2024-01-30T07:45:23;24.27;;;17.77;;
15669;SDS011;18524;45.190;5.732;2024-01-30T07:50:14;26.80;;;18.63;;
15669;SDS011;18524;45.190;5.732;2024-01-30T07:55:05;24.77;;;18.80;;
15669;SDS011;18524;45.190;5.732;2024-01-30T07:59:57;25.10;;;18.47;;
15669;SDS011;18524;45.190;5.732;2024-01-30T08:04:48;27.80;;;20.40;;
15669;SDS011;18524;45.190;5.732;2024-01-30T08:09:39;23.43;;;18.67;;
15669;SDS011;18524;45.190;5.732;2024-01-30T08:14:29;25.87;;;19.70;;
15669;SDS011;18524;45.190;5.732;2024-01-30T08:19:20;31.90;;;19.80;;
15669;SDS011;18524;45.190;5.732;2024-01-30T08:24:10;28.73;;;19.77;;
15669;SDS011;18524;45.190;5.732;2024-01-30T08:29:01;29.47;;;19.93;;
15669;SDS011;18524;45.190;5.732;2024-01-30T08:33:51;26.50;;;19.30;;
15669;SDS011;18524;45.190;5.732;2024-01-30T08:38:42;29.07;;;20.17;;
15669;SDS011;18524;45.190;5.732;2024-01-30T08:43:32;30.10;;;20.13;;
15669;SDS011;18524;45.190;5.732;2024-01-30T08:48:23;28.47;;;20.90;;
15669;SDS011;18524;45.190;5.732;2024-01-30T08:53:13;28.23;;;20.80;;
15669;SDS011;18524;45.190;5.732;2024-01-30T08:58:03;28.13;;;19.90;;
15669;SDS011;18524;45.190;5.732;2024-01-30T09:02:55;30.07;;;19.53;;
15669;SDS011;18524;45.190;5.732;2024-01-30T09:07:45;23.33;;;17.97;;
15669;SDS011;18524;45.190;5.732;2024-01-30T09:12:36;23.47;;;17.83;;
15669;SDS011;18524;45.190;5.732;2024-01-30T09:17:26;23.67;;;17.73;;
15669;SDS011;18524;45.190;5.732;2024-01-30T09:22:16;22.60;;;17.70;;
15669;SDS011;18524;45.190;5.732;2024-01-30T09:27:07;22.63;;;17.03;;
15669;SDS011;18524;45.190;5.732;2024-01-30T09:31:57;22.97;;;17.10;;
15669;SDS011;18524;45.190;5.732;2024-01-30T09:36:48;23.23;;;17.07;;
15669;SDS011;18524;45.190;5.732;2024-01-30T09:41:42;23.23;;;17.47;;
15669;SDS011;18524;45.190;5.732;2024-01-30T09:46:45;21.53;;;16.87;;
15669;SDS011;18524;45.190;5.732;2024-01-30T09:51:40;21.43;;;16.17;;
15669;SDS011;18524;45.190;5.732;2024-01-30T09:56:30;22.07;;;16.67;;
15669;SDS011;18524;45.190;5.732;2024-01-30T10:01:21;21.20;;;16.13;;
15669;SDS011;18524;45.190;5.732;2024-01-30T10:06:12;19.87;;;15.87;;
15669;SDS011;18524;45.190;5.732;2024-01-30T10:11:04;18.57;;;15.37;;
15669;SDS011;18524;45.190;5.732;2024-01-30T10:15:54;19.00;;;15.90;;
15669;SDS011;18524;45.190;5.732;2024-01-30T10:20:45;19.83;;;15.93;;
15669;SDS011;18524;45.190;5.732;2024-01-30T10:25:36;26.97;;;17.27;;
15669;SDS011;18524;45.190;5.732;2024-01-30T10:30:27;22.40;;;17.43;;
15669;SDS011;18524;45.190;5.732;2024-01-30T10:35:18;20.70;;;16.43;;
15669;SDS011;18524;45.190;5.732;2024-01-30T10:40:08;20.93;;;17.60;;
15669;SDS011;18524;45.190;5.732;2024-01-30T10:45:12;23.07;;;17.47;;
15669;SDS011;18524;45.190;5.732;2024-01-30T10:50:03;18.63;;;15.47;;
15669;SDS011;18524;45.190;5.732;2024-01-30T10:54:54;19.27;;;15.30;;
15669;SDS011;18524;45.190;5.732;2024-01-30T10:59:45;16.10;;;14.40;;
15669;SDS011;18524;45.190;5.732;2024-01-30T11:04:37;18.53;;;15.43;;
15669;SDS011;18524;45.190;5.732;2024-01-30T11:09:28;17.67;;;15.43;;
15669;SDS011;18524;45.190;5.732;2024-01-30T11:14:31;21.80;;;15.60;;
15669;SDS011;18524;45.190;5.732;2024-01-30T11:19:31;19.83;;;14.93;;
15669;SDS011;18524;45.190;5.732;2024-01-30T11:24:23;16.50;;;14.03;;
15669;SDS011;18524;45.190;5.732;2024-01-30T11:29:14;17.83;;;14.60;;
15669;SDS011;18524;45.190;5.732;2024-01-30T11:34:05;17.67;;;14.33;;
15669;SDS011;18524;45.190;5.732;2024-01-30T11:38:56;17.90;;;15.03;;
15669;SDS011;18524;45.190;5.732;2024-01-30T11:43:53;19.80;;;15.40;;
15669;SDS011;18524;45.190;5.732;2024-01-30T11:48:43;19.27;;;15.03;;
15669;SDS011;18524;45.190;5.732;2024-01-30T11:53:34;17.47;;;15.30;;
15669;SDS011;18524;45.190;5.732;2024-01-30T11:58:25;18.43;;;15.07;;
15669;SDS011;18524;45.190;5.732;2024-01-30T12:03:16;18.13;;;15.53;;
15669;SDS011;18524;45.190;5.732;2024-01-30T12:08:06;18.83;;;15.67;;
15669;SDS011;18524;45.190;5.732;2024-01-30T12:12:57;17.47;;;14.50;;
15669;SDS011;18524;45.190;5.732;2024-01-30T12:17:48;17.70;;;15.80;;
15669;SDS011;18524;45.190;5.732;2024-01-30T12:22:42;20.70;;;15.93;;
15669;SDS011;18524;45.190;5.732;2024-01-30T12:27:34;16.27;;;14.57;;
15669;SDS011;18524;45.190;5.732;2024-01-30T12:32:24;18.20;;;15.00;;
15669;SDS011;18524;45.190;5.732;2024-01-30T12:37:15;16.10;;;14.40;;
15669;SDS011;18524;45.190;5.732;2024-01-30T12:42:09;17.77;;;14.47;;
15669;SDS011;18524;45.190;5.732;2024-01-30T12:47:02;15.40;;;13.80;;
15669;SDS011;18524;45.190;5.732;2024-01-30T12:51:53;16.23;;;13.87;;
15669;SDS011;18524;45.190;5.732;2024-01-30T12:56:43;16.73;;;13.30;;
15669;SDS011;18524;45.190;5.732;2024-01-30T13:01:34;16.80;;;14.57;;
15669;SDS011;18524;45.190;5.732;2024-01-30T13:06:24;17.47;;;14.23;;
15669;SDS011;18524;45.190;5.732;2024-01-30T13:11:14;22.80;;;16.13;;
15669;SDS011;18524;45.190;5.732;2024-01-30T13:16:05;22.13;;;15.63;;
15669;SDS011;18524;45.190;5.732;2024-01-30T13:20:56;17.87;;;15.27;;
15669;SDS011;18524;45.190;5.732;2024-01-30T13:25:46;19.00;;;15.13;;
15669;SDS011;18524;45.190;5.732;2024-01-30T13:30:36;20.13;;;14.13;;
15669;SDS011;18524;45.190;5.732;2024-01-30T13:35:27;19.67;;;15.10;;
15669;SDS011;18524;45.190;5.732;2024-01-30T13:40:19;19.40;;;15.37;;
15669;SDS011;18524;45.190;5.732;2024-01-30T13:45:09;16.90;;;14.43;;
15669;SDS011;18524;45.190;5.732;2024-01-30T13:50:02;16.73;;;12.97;;
15669;SDS011;18524;45.190;5.732;2024-01-30T13:54:53;14.97;;;13.03;;
15669;SDS011;18524;45.190;5.732;2024-01-30T13:59:43;14.97;;;10.87;;
15669;SDS011;18524;45.190;5.732;2024-01-30T14:04:33;12.43;;;10.40;;
15669;SDS011;18524;45.190;5.732;2024-01-30T14:09:24;11.30;;;10.00;;
15669;SDS011;18524;45.190;5.732;2024-01-30T14:14:15;10.37;;;8.30;;
15669;SDS011;18524;45.190;5.732;2024-01-30T14:19:05;9.50;;;8.50;;
15669;SDS011;18524;45.190;5.732;2024-01-30T14:23:56;8.83;;;7.90;;
15669;SDS011;18524;45.190;5.732;2024-01-30T14:28:46;9.23;;;7.40;;
15669;SDS011;18524;45.190;5.732;2024-01-30T14:33:37;10.57;;;7.40;;
15669;SDS011;18524;45.190;5.732;2024-01-30T14:38:27;9.77;;;8.10;;
15669;SDS011;18524;45.190;5.732;2024-01-30T14:43:18;8.53;;;7.47;;
15669;SDS011;18524;45.190;5.732;2024-01-30T14:48:08;10.37;;;7.67;;
15669;SDS011;18524;45.190;5.732;2024-01-30T14:52:59;9.37;;;7.47;;
15669;SDS011;18524;45.190;5.732;2024-01-30T14:57:49;8.77;;;7.53;;
15669;SDS011;18524;45.190;5.732;2024-01-30T15:02:40;9.37;;;7.77;;
15669;SDS011;18524;45.190;5.732;2024-01-30T15:07:30;8.57;;;7.53;;
15669;SDS011;18524;45.190;5.732;2024-01-30T15:12:20;9.03;;;8.13;;
15669;SDS011;18524;45.190;5.732;2024-01-30T15:17:11;9.60;;;7.97;;
15669;SDS011;18524;45.190;5.732;2024-01-30T15:22:01;10.30;;;8.07;;
15669;SDS011;18524;45.190;5.732;2024-01-30T15:26:52;9.67;;;7.63;;
15669;SDS011;18524;45.190;5.732;2024-01-30T15:31:42;9.57;;;8.43;;
15669;SDS011;18524;45.190;5.732;2024-01-30T15:36:32;10.07;;;7.67;;
15669;SDS011;18524;45.190;5.732;2024-01-30T15:41:23;9.97;;;8.07;;
15669;SDS011;18524;45.190;5.732;2024-01-30T15:46:13;12.40;;;9.27;;
15669;SDS011;18524;45.190;5.732;2024-01-30T15:51:04;10.13;;;9.03;;
15669;SDS011;18524;45.190;5.732;2024-01-30T15:55:54;10.50;;;9.30;;
15669;SDS011;18524;45.190;5.732;2024-01-30T16:00:44;9.67;;;8.07;;
15669;SDS011;18524;45.190;5.732;2024-01-30T16:05:35;8.73;;;7.80;;
15669;SDS011;18524;45.190;5.732;2024-01-30T16:10:25;8.23;;;7.07;;
15669;SDS011;18524;45.190;5.732;2024-01-30T16:15:16;8.47;;;7.60;;
15669;SDS011;18524;45.190;5.732;2024-01-30T16:20:08;10.73;;;7.77;;
15669;SDS011;18524;45.190;5.732;2024-01-30T16:24:59;10.70;;;8.40;;
15669;SDS011;18524;45.190;5.732;2024-01-30T16:29:49;12.37;;;8.40;;
15669;SDS011;18524;45.190;5.732;2024-01-30T16:34:39;10.80;;;8.60;;
15669;SDS011;18524;45.190;5.732;2024-01-30T16:39:30;11.27;;;8.73;;
15669;SDS011;18524;45.190;5.732;2024-01-30T16:44:20;12.37;;;9.03;;
15669;SDS011;18524;45.190;5.732;2024-01-30T16:49:11;12.37;;;9.20;;
15669;SDS011;18524;45.190;5.732;2024-01-30T16:54:01;12.50;;;9.50;;
15669;SDS011;18524;45.190;5.732;2024-01-30T16:58:51;13.87;;;10.53;;
15669;SDS011;18524;45.190;5.732;2024-01-30T17:03:42;14.10;;;11.07;;
15669;SDS011;18524;45.190;5.732;2024-01-30T17:08:33;13.13;;;10.20;;
15669;SDS011;18524;45.190;5.732;2024-01-30T17:13:24;13.90;;;9.93;;
15669;SDS011;18524;45.190;5.732;2024-01-30T17:18:14;13.37;;;10.63;;
15669;SDS011;18524;45.190;5.732;2024-01-30T17:23:05;13.27;;;10.27;;
15669;SDS011;18524;45.190;5.732;2024-01-30T17:27:57;14.53;;;10.63;;
15669;SDS011;18524;45.190;5.732;2024-01-30T17:32:48;14.83;;;10.67;;
15669;SDS011;18524;45.190;5.732;2024-01-30T17:37:38;16.03;;;11.50;;
15669;SDS011;18524;45.190;5.732;2024-01-30T17:42:30;13.27;;;10.87;;
15669;SDS011;18524;45.190;5.732;2024-01-30T17:47:20;12.83;;;11.07;;
15669;SDS011;18524;45.190;5.732;2024-01-30T17:52:10;16.67;;;12.47;;
15669;SDS011;18524;45.190;5.732;2024-01-30T17:57:01;17.60;;;12.77;;
15669;SDS011;18524;45.190;5.732;2024-01-30T18:01:51;16.97;;;13.07;;
15669;SDS011;18524;45.190;5.732;2024-01-30T18:06:42;14.67;;;11.43;;
15669;SDS011;18524;45.190;5.732;2024-01-30T18:11:32;16.43;;;11.70;;
15669;SDS011;18524;45.190;5.732;2024-01-30T18:16:22;19.17;;;15.03;;
15669;SDS011;18524;45.190;5.732;2024-01-30T18:21:14;16.83;;;13.10;;
15669;SDS011;18524;45.190;5.732;2024-01-30T18:26:05;16.47;;;12.63;;
15669;SDS011;18524;45.190;5.732;2024-01-30T18:30:55;17.47;;;13.13;;
15669;SDS011;18524;45.190;5.732;2024-01-30T18:35:46;25.60;;;15.67;;
15669;SDS011;18524;45.190;5.732;2024-01-30T18:40:36;16.70;;;12.80;;
15669;SDS011;18524;45.190;5.732;2024-01-30T18:45:27;19.70;;;14.77;;
15669;SDS011;18524;45.190;5.732;2024-01-30T18:50:17;20.40;;;14.80;;
15669;SDS011;18524;45.190;5.732;2024-01-30T18:55:08;23.70;;;17.23;;
15669;SDS011;18524;45.190;5.732;2024-01-30T18:59:58;33.97;;;20.47;;
15669;SDS011;18524;45.190;5.732;2024-01-30T19:04:48;31.83;;;19.63;;
15669;SDS011;18524;45.190;5.732;2024-01-30T19:09:42;30.73;;;21.17;;
15669;SDS011;18524;45.190;5.732;2024-01-30T19:14:32;32.83;;;19.60;;
15669;SDS011;18524;45.190;5.732;2024-01-30T19:19:24;24.30;;;16.97;;
15669;SDS011;18524;45.190;5.732;2024-01-30T19:24:14;26.23;;;16.07;;
15669;SDS011;18524;45.190;5.732;2024-01-30T19:29:04;20.00;;;15.20;;
15669;SDS011;18524;45.190;5.732;2024-01-30T19:33:55;20.83;;;16.50;;
15669;SDS011;18524;45.190;5.732;2024-01-30T19:38:46;25.60;;;17.27;;
15669;SDS011;18524;45.190;5.732;2024-01-30T19:43:36;24.43;;;16.90;;
15669;SDS011;18524;45.190;5.732;2024-01-30T19:48:26;27.53;;;18.97;;
15669;SDS011;18524;45.190;5.732;2024-01-30T19:53:17;26.00;;;17.80;;
15669;SDS011;18524;45.190;5.732;2024-01-30T19:58:08;23.30;;;18.07;;
15669;SDS011;18524;45.190;5.732;2024-01-30T20:02:58;26.80;;;18.53;;
15669;SDS011;18524;45.190;5.732;2024-01-30T20:07:50;26.07;;;18.20;;
15669;SDS011;18524;45.190;5.732;2024-01-30T20:12:40;27.37;;;17.90;;
15669;SDS011;18524;45.190;5.732;2024-01-30T20:17:31;24.23;;;18.20;;
15669;SDS011;18524;45.190;5.732;2024-01-30T20:22:22;26.40;;;19.13;;
15669;SDS011;18524;45.190;5.732;2024-01-30T20:27:12;22.23;;;18.33;;
15669;SDS011;18524;45.190;5.732;2024-01-30T20:32:03;25.03;;;18.73;;
15669;SDS011;18524;45.190;5.732;2024-01-30T20:36:54;24.00;;;18.20;;
15669;SDS011;18524;45.190;5.732;2024-01-30T20:41:44;25.17;;;20.37;;
15669;SDS011;18524;45.190;5.732;2024-01-30T20:46:34;40.47;;;29.83;;
15669;SDS011;18524;45.190;5.732;2024-01-30T20:51:25;33.13;;;24.77;;
15669;SDS011;18524;45.190;5.732;2024-01-30T20:56:15;29.53;;;21.40;;
15669;SDS011;18524;45.190;5.732;2024-01-30T21:01:06;28.70;;;21.10;;
15669;SDS011;18524;45.190;5.732;2024-01-30T21:05:57;30.70;;;21.33;;
15669;SDS011;18524;45.190;5.732;2024-01-30T21:10:48;27.40;;;19.20;;
15669;SDS011;18524;45.190;5.732;2024-01-30T21:15:39;24.20;;;19.43;;
15669;SDS011;18524;45.190;5.732;2024-01-30T21:20:29;26.53;;;19.07;;
15669;SDS011;18524;45.190;5.732;2024-01-30T21:25:19;25.40;;;20.03;;
15669;SDS011;18524;45.190;5.732;2024-01-30T21:30:10;25.77;;;20.10;;
15669;SDS011;18524;45.190;5.732;2024-01-30T21:35:00;28.47;;;19.87;;
15669;SDS011;18524;45.190;5.732;2024-01-30T21:39:51;26.77;;;19.73;;
15669;SDS011;18524;45.190;5.732;2024-01-30T21:44:44;27.67;;;19.67;;
15669;SDS011;18524;45.190;5.732;2024-01-30T21:49:34;28.80;;;20.93;;
15669;SDS011;18524;45.190;5.732;2024-01-30T21:54:28;29.80;;;20.50;;
15669;SDS011;18524;45.190;5.732;2024-01-30T21:59:18;27.47;;;20.83;;
15669;SDS011;18524;45.190;5.732;2024-01-30T22:04:08;30.43;;;20.80;;
15669;SDS011;18524;45.190;5.732;2024-01-30T22:08:59;27.47;;;20.37;;
15669;SDS011;18524;45.190;5.732;2024-01-30T22:13:49;26.17;;;19.40;;
15669;SDS011;18524;45.190;5.732;2024-01-30T22:18:40;31.97;;;22.17;;
15669;SDS011;18524;45.190;5.732;2024-01-30T22:23:31;43.63;;;28.10;;
15669;SDS011;18524;45.190;5.732;2024-01-30T22:28:21;32.67;;;23.73;;
15669;SDS011;18524;45.190;5.732;2024-01-30T22:33:11;33.37;;;23.20;;
15669;SDS011;18524;45.190;5.732;2024-01-30T22:38:02;29.70;;;22.33;;
15669;SDS011;18524;45.190;5.732;2024-01-30T22:42:57;30.53;;;22.47;;
15669;SDS011;18524;45.190;5.732;2024-01-30T22:47:47;28.83;;;21.23;;
15669;SDS011;18524;45.190;5.732;2024-01-30T22:52:39;27.27;;;20.73;;
15669;SDS011;18524;45.190;5.732;2024-01-30T22:57:29;26.93;;;19.87;;
15669;SDS011;18524;45.190;5.732;2024-01-30T23:02:21;27.13;;;20.97;;
15669;SDS011;18524;45.190;5.732;2024-01-30T23:07:12;32.00;;;23.83;;
15669;SDS011;18524;45.190;5.732;2024-01-30T23:12:06;29.30;;;22.67;;
15669;SDS011;18524;45.190;5.732;2024-01-30T23:16:57;30.43;;;22.67;;
15669;SDS011;18524;45.190;5.732;2024-01-30T23:21:47;29.10;;;22.47;;
15669;SDS011;18524;45.190;5.732;2024-01-30T23:26:40;28.87;;;22.70;;
15669;SDS011;18524;45.190;5.732;2024-01-30T23:31:31;32.00;;;23.03;;
15669;SDS011;18524;45.190;5.732;2024-01-30T23:36:22;31.63;;;22.57;;
15669;SDS011;18524;45.190;5.732;2024-01-30T23:41:12;27.00;;;20.80;;
15669;SDS011;18524;45.190;5.732;2024-01-30T23:46:02;32.13;;;22.67;;
15669;SDS011;18524;45.190;5.732;2024-01-30T23:50:53;28.37;;;21.43;;
15669;SDS011;18524;45.190;5.732;2024-01-30T23:55:43;30.07;;;22.20;;
